Pride — ZDFD7 — position and weather

sailwx.info

Track history (hours):
 
Tides and Currents Weather Stations Pressure Air Temp Water Temp Dewpoint Dewpoint Depression Visibility Wind Speed Wind Dir Waves Ship Positions

Pride

Last reported at 2016-Jul-31 02:32 UTC. Time now 2016-Jul-31 03:34 UTC.
Position N 53°25' E 014°36'.

Length 88 m; draft 3.5 m.

Type: Cargo ship. MMSI: 236166000.

Date/timePositionNaut miles runAvg speedWind from/ knotsBaromVisibWave heightAir tempDewpointWater temp
2016-Jul-31 02:32N 53°25' E 014°36'0 0.0
2016-Jul-31 01:31N 53°25' E 014°36'0 0.0
2016-Jul-31 00:33N 53°25' E 014°36'0 0.0
2016-Jul-30 22:33N 53°25' E 014°36'0 0.0
2016-Jul-30 21:29N 53°25' E 014°36'0 0.0
2016-Jul-30 20:32N 53°25' E 014°36'0 0.0
2016-Jul-30 19:30N 53°25' E 014°36'0 0.0
2016-Jul-30 18:33N 53°25' E 014°36'0 0.0
2016-Jul-30 17:32N 53°25' E 014°36'1 1.0
2016-Jul-30 16:33N 53°26' E 014°36'8 8.1
2016-Jul-30 15:33N 53°34' E 014°36'9 8.9
2016-Jul-30 14:33N 53°42' E 014°29'9 9.4
2016-Jul-30 13:33N 53°49' E 014°19'8 7.9
2016-Jul-30 12:33N 53°57' E 014°16'2 1.6
2016-Jul-30 11:30N 53°58' E 014°15'0 0.1
2016-Jul-30 10:33N 53°58' E 014°15'8 8.1
2016-Jul-30 09:33N 54°06' E 014°13'85 9.4
2016-Jul-30 00:32N 55°11' E 012°38'9 9.4
2016-Jul-29 23:34N 55°20' E 012°38'9 9.5
2016-Jul-29 22:33N 55°29' E 012°41'9 8.8
2016-Jul-29 21:34N 55°38' E 012°42'9 8.6
2016-Jul-29 20:34N 55°46' E 012°41'9 9.0
2016-Jul-29 19:34N 55°55' E 012°38'8 8.4
2016-Jul-29 18:34N 56°04' E 012°38'8 8.1
2016-Jul-29 17:33N 56°09' E 012°26'35 8.6
2016-Jul-29 13:29N 56°39' E 011°54'910.0
2016-Jul-29 12:33N 56°48' E 011°50'10 9.7
2016-Jul-29 11:31N 56°57' E 011°44'18 9.0
2016-Jul-29 09:33N 57°14' E 011°33'9 8.5
2016-Jul-29 08:33N 57°22' E 011°27'8 8.5
2016-Jul-29 07:34N 57°29' E 011°19'9 9.3
2016-Jul-29 06:33N 57°36' E 011°07'10 9.7
2016-Jul-29 05:33N 57°43' E 010°54'122 9.7
2016-Jul-28 17:04N 57°55' E 007°07'5 9.2
2016-Jul-28 16:34N 57°56' E 006°58'10 9.5
2016-Jul-28 15:33N 57°60' E 006°42'10 9.6
2016-Jul-28 14:32N 58°06' E 006°28'  
2016-Jul-23 08:27N 58°12' E 006°42'7 7.5
2016-Jul-23 07:33N 58°09' E 006°31'8 8.3
2016-Jul-23 06:33N 58°02' E 006°37'101 9.7
2016-Jul-22 20:10N 57°50' E 009°46'9 9.3
2016-Jul-22 19:13N 57°49' E 010°03'9 9.6
2016-Jul-22 18:14N 57°48' E 010°20'710.3
2016-Jul-22 17:33N 57°48' E 010°33'9 8.8
2016-Jul-22 16:33N 57°46' E 010°49'9 9.5
2016-Jul-22 15:33N 57°40' E 011°02'1010.0
2016-Jul-22 14:33N 57°33' E 011°16'10 9.5
2016-Jul-22 13:33N 57°26' E 011°28'10 9.9
2016-Jul-22 12:33N 57°16' E 011°34'10 9.6
2016-Jul-22 11:33N 57°07' E 011°39'9 9.4
2016-Jul-22 10:33N 56°59' E 011°45'9 9.2
2016-Jul-22 09:33N 56°50' E 011°51'9 9.0
2016-Jul-22 08:33N 56°41' E 011°56'9 9.0
2016-Jul-22 07:33N 56°32' E 011°59'26 8.8
2016-Jul-22 04:33N 56°10' E 012°26'1111.5
2016-Jul-22 03:33N 56°02' E 012°40'1010.2
2016-Jul-22 02:33N 55°52' E 012°44'1010.3
2016-Jul-22 01:33N 55°42' E 012°41'1010.3
2016-Jul-22 00:33N 55°32' E 012°43'10 9.6
2016-Jul-21 23:34N 55°22' E 012°41'8 8.0
2016-Jul-21 22:33N 55°17' E 012°51'9 9.2
2016-Jul-21 21:33N 55°13' E 013°05'9 9.3
2016-Jul-21 20:34N 55°09' E 013°21'10 9.6
2016-Jul-21 19:33N 55°05' E 013°36'9 9.4
2016-Jul-21 18:33N 55°02' E 013°51'10 9.7
2016-Jul-21 17:33N 54°58' E 014°06'10 9.8
2016-Jul-21 16:33N 54°53' E 014°22'10 9.8
2016-Jul-21 15:33N 54°49' E 014°37'9 9.5
2016-Jul-21 14:33N 54°49' E 014°54'10 9.6
2016-Jul-21 13:33N 54°49' E 015°10'10 9.7
2016-Jul-21 12:33N 54°49' E 015°27'10 9.9
2016-Jul-21 11:30N 54°49' E 015°45'12 9.9
2016-Jul-21 10:18N 54°49' E 016°06'8 9.8
2016-Jul-21 09:27N 54°49' E 016°20'9 9.8
2016-Jul-21 08:33N 54°50' E 016°36'1010.0
2016-Jul-21 07:33N 54°51' E 016°53'1110.2
2016-Jul-21 06:31N 54°54' E 017°11'1010.1
2016-Jul-21 05:33N 54°55' E 017°27'1010.0
2016-Jul-21 04:33N 54°56' E 017°45'1010.0
2016-Jul-21 03:34N 54°56' E 018°02'1010.0
2016-Jul-21 02:33N 54°57' E 018°19'  
Track history (hours):
 
Tides and Currents Weather Stations Pressure Air Temp Water Temp Dewpoint Dewpoint Depression Visibility Wind Speed Wind Dir Waves Ship Positions

Pride

Last reported at 2016-Jul-31 02:32 UTC. Time now 2016-Jul-31 03:35 UTC.
Position N 53°25' E 014°36'.

Length 88 m; draft 3.5 m.

Type: Cargo ship. MMSI: 236166000.

Date/timePositionNaut miles runAvg speedWind from/ knotsBaromVisibWave heightAir tempDewpointWater temp
2016-Jul-31 02:32N 53°25' E 014°36'0 0.0
2016-Jul-31 01:31N 53°25' E 014°36'0 0.0
2016-Jul-31 00:33N 53°25' E 014°36'0 0.0
2016-Jul-30 22:33N 53°25' E 014°36'0 0.0
2016-Jul-30 21:29N 53°25' E 014°36'0 0.0
2016-Jul-30 20:32N 53°25' E 014°36'0 0.0
2016-Jul-30 19:30N 53°25' E 014°36'0 0.0
2016-Jul-30 18:33N 53°25' E 014°36'0 0.0
2016-Jul-30 17:32N 53°25' E 014°36'1 1.0
2016-Jul-30 16:33N 53°26' E 014°36'8 8.1
2016-Jul-30 15:33N 53°34' E 014°36'9 8.9
2016-Jul-30 14:33N 53°42' E 014°29'9 9.4
2016-Jul-30 13:33N 53°49' E 014°19'8 7.9
2016-Jul-30 12:33N 53°57' E 014°16'2 1.6
2016-Jul-30 11:30N 53°58' E 014°15'0 0.1
2016-Jul-30 10:33N 53°58' E 014°15'8 8.1
2016-Jul-30 09:33N 54°06' E 014°13'85 9.4
2016-Jul-30 00:32N 55°11' E 012°38'9 9.4
2016-Jul-29 23:34N 55°20' E 012°38'9 9.5
2016-Jul-29 22:33N 55°29' E 012°41'9 8.8
2016-Jul-29 21:34N 55°38' E 012°42'9 8.6
2016-Jul-29 20:34N 55°46' E 012°41'9 9.0
2016-Jul-29 19:34N 55°55' E 012°38'8 8.4
2016-Jul-29 18:34N 56°04' E 012°38'8 8.1
2016-Jul-29 17:33N 56°09' E 012°26'35 8.6
2016-Jul-29 13:29N 56°39' E 011°54'910.0
2016-Jul-29 12:33N 56°48' E 011°50'10 9.7
2016-Jul-29 11:31N 56°57' E 011°44'18 9.0
2016-Jul-29 09:33N 57°14' E 011°33'9 8.5
2016-Jul-29 08:33N 57°22' E 011°27'8 8.5
2016-Jul-29 07:34N 57°29' E 011°19'9 9.3
2016-Jul-29 06:33N 57°36' E 011°07'10 9.7
2016-Jul-29 05:33N 57°43' E 010°54'122 9.7
2016-Jul-28 17:04N 57°55' E 007°07'5 9.2
2016-Jul-28 16:34N 57°56' E 006°58'10 9.5
2016-Jul-28 15:33N 57°60' E 006°42'10 9.6
2016-Jul-28 14:32N 58°06' E 006°28'  
2016-Jul-23 08:27N 58°12' E 006°42'7 7.5
2016-Jul-23 07:33N 58°09' E 006°31'8 8.3
2016-Jul-23 06:33N 58°02' E 006°37'101 9.7
2016-Jul-22 20:10N 57°50' E 009°46'9 9.3
2016-Jul-22 19:13N 57°49' E 010°03'9 9.6
2016-Jul-22 18:14N 57°48' E 010°20'710.3
2016-Jul-22 17:33N 57°48' E 010°33'9 8.8
2016-Jul-22 16:33N 57°46' E 010°49'9 9.5
2016-Jul-22 15:33N 57°40' E 011°02'1010.0
2016-Jul-22 14:33N 57°33' E 011°16'10 9.5
2016-Jul-22 13:33N 57°26' E 011°28'10 9.9
2016-Jul-22 12:33N 57°16' E 011°34'10 9.6
2016-Jul-22 11:33N 57°07' E 011°39'9 9.4
2016-Jul-22 10:33N 56°59' E 011°45'9 9.2
2016-Jul-22 09:33N 56°50' E 011°51'9 9.0
2016-Jul-22 08:33N 56°41' E 011°56'9 9.0
2016-Jul-22 07:33N 56°32' E 011°59'26 8.8
2016-Jul-22 04:33N 56°10' E 012°26'1111.5
2016-Jul-22 03:33N 56°02' E 012°40'1010.2
2016-Jul-22 02:33N 55°52' E 012°44'1010.3
2016-Jul-22 01:33N 55°42' E 012°41'1010.3
2016-Jul-22 00:33N 55°32' E 012°43'10 9.6
2016-Jul-21 23:34N 55°22' E 012°41'8 8.0
2016-Jul-21 22:33N 55°17' E 012°51'9 9.2
2016-Jul-21 21:33N 55°13' E 013°05'9 9.3
2016-Jul-21 20:34N 55°09' E 013°21'10 9.6
2016-Jul-21 19:33N 55°05' E 013°36'9 9.4
2016-Jul-21 18:33N 55°02' E 013°51'10 9.7
2016-Jul-21 17:33N 54°58' E 014°06'10 9.8
2016-Jul-21 16:33N 54°53' E 014°22'10 9.8
2016-Jul-21 15:33N 54°49' E 014°37'9 9.5
2016-Jul-21 14:33N 54°49' E 014°54'10 9.6
2016-Jul-21 13:33N 54°49' E 015°10'10 9.7
2016-Jul-21 12:33N 54°49' E 015°27'10 9.9
2016-Jul-21 11:30N 54°49' E 015°45'12 9.9
2016-Jul-21 10:18N 54°49' E 016°06'8 9.8
2016-Jul-21 09:27N 54°49' E 016°20'9 9.8
2016-Jul-21 08:33N 54°50' E 016°36'1010.0
2016-Jul-21 07:33N 54°51' E 016°53'1110.2
2016-Jul-21 06:31N 54°54' E 017°11'1010.1
2016-Jul-21 05:33N 54°55' E 017°27'1010.0
2016-Jul-21 04:33N 54°56' E 017°45'1010.0
2016-Jul-21 03:34N 54°56' E 018°02'1010.0
2016-Jul-21 02:33N 54°57' E 018°19'  

Dump ship's entire track history